PWSweather.com
Personal Weather Stations
Station Observations
1A3COP
Copperhill Airport Community, Copperhill, TN 37317

Copperhill Airport CommunityCopperhill, TN 37317

Lat: 35.015465, Lon: -84.340598

Elevation: 1830

Station Type: Acurite Pro 5 in 1

High Low Average
Temperature 68.7°F20.4°C 67.5°F19.7°C 67.8°F19.9°C
Dew Point 65.9°F18.8°C 65.1°F18.4°C 65.4°F18.6°C
Winds 3.5 mph 5.6 kmh Calm Calm 1.0 mph SSE1.6 kmh SSE
Wind Gusts 5.8 mph9.3 kmh -- 1.0 mph1.6 kmh
Humidity 94% 90% 92%
Pressure 28.16 in953.6 mb 28.11 in951.9 mb -
Precipitation 0.00 in0.0 mm - -
Hour Temp Dew Point Humidity Winds Wind Gusts Pressure Precip Precip Rate Daily Precip Total
12:00 AM 69.1°F20.6°C 66.0°F18.9°C 90% 2.3 mph SE3.7 kmh SE 2.3 mph3.7 kmh 28.16 in953.6 mb - 0.00 in0.0 mm 0.00 in0.0 mm
12:01 AM 69.1°F20.6°C 66.0°F18.9°C 90% 1.2 mph ESE1.9 kmh ESE 2.3 mph3.7 kmh 28.16 in953.6 mb - 0.00 in0.0 mm 0.00 in0.0 mm
12:02 AM 69.1°F20.6°C 66.0°F18.9°C 90% 1.2 mph SE1.9 kmh SE 2.3 mph3.7 kmh 28.16 in953.6 mb - 0.00 in0.0 mm 0.00 in0.0 mm
12:03 AM 69.1°F20.6°C 66.0°F18.9°C 90% 1.2 mph S1.9 kmh S 2.3 mph3.7 kmh 28.16 in953.6 mb - 0.00 in0.0 mm 0.00 in0.0 mm
12:04 AM 69.1°F20.6°C 66.0°F18.9°C 90% 2.3 mph E3.7 kmh E 4.6 mph7.4 kmh 28.16 in953.6 mb - 0.00 in0.0 mm 0.00 in0.0 mm
12:05 AM 69.1°F20.6°C 66.0°F18.9°C 90% 2.3 mph SE3.7 kmh SE 2.3 mph3.7 kmh 28.16 in953.6 mb - 0.00 in0.0 mm 0.00 in0.0 mm
12:06 AM 69.1°F20.6°C 66.0°F18.9°C 90% 1.2 mph SE1.9 kmh SE 2.3 mph3.7 kmh 28.16 in953.6 mb - 0.00 in0.0 mm 0.00 in0.0 mm
12:07 AM 69.1°F20.6°C 66.0°F18.9°C 90% 1.2 mph SE1.9 kmh SE 3.5 mph5.6 kmh 28.16 in953.6 mb - 0.00 in0.0 mm 0.00 in0.0 mm
12:08 AM 69.1°F20.6°C 66.0°F18.9°C 90% 2.3 mph SE3.7 kmh SE 3.5 mph5.6 kmh 28.16 in953.6 mb - 0.00 in0.0 mm 0.00 in0.0 mm
12:09 AM 69.1°F20.6°C 66.0°F18.9°C 90% 2.3 mph SE3.7 kmh SE 2.3 mph3.7 kmh 28.16 in953.6 mb - 0.00 in0.0 mm 0.00 in0.0 mm
12:10 AM 69.1°F20.6°C 66.0°F18.9°C 90% 1.2 mph SSE1.9 kmh SSE 1.2 mph1.9 kmh 28.16 in953.6 mb - 0.00 in0.0 mm 0.00 in0.0 mm
12:11 AM 69.1°F20.6°C 66.0°F18.9°C 90% 1.2 mph S1.9 kmh S 2.3 mph3.7 kmh 28.16 in953.6 mb - 0.00 in0.0 mm 0.00 in0.0 mm
12:12 AM 69.1°F20.6°C 66.0°F18.9°C 90% 1.2 mph SE1.9 kmh SE 2.3 mph3.7 kmh 28.16 in953.6 mb - 0.00 in0.0 mm 0.00 in0.0 mm
12:13 AM 69.1°F20.6°C 66.0°F18.9°C 90% 2.3 mph ESE3.7 kmh ESE 3.5 mph5.6 kmh 28.16 in953.6 mb - 0.00 in0.0 mm 0.00 in0.0 mm
12:14 AM 69.1°F20.6°C 66.0°F18.9°C 90% 1.2 mph SE1.9 kmh SE 1.2 mph1.9 kmh 28.16 in953.6 mb - 0.00 in0.0 mm 0.00 in0.0 mm
12:15 AM 69.1°F20.6°C 66.0°F18.9°C 90% 1.2 mph SSW1.9 kmh SSW 2.3 mph3.7 kmh 28.16 in953.6 mb - 0.00 in0.0 mm 0.00 in0.0 mm
12:16 AM 69.1°F20.6°C 66.0°F18.9°C 90% 2.3 mph SE3.7 kmh SE 2.3 mph3.7 kmh 28.16 in953.6 mb - 0.00 in0.0 mm 0.00 in0.0 mm
12:17 AM 69.1°F20.6°C 66.0°F18.9°C 90% 1.2 mph S1.9 kmh S 1.2 mph1.9 kmh 28.16 in953.6 mb - 0.00 in0.0 mm 0.00 in0.0 mm
12:18 AM 69.1°F20.6°C 66.0°F18.9°C 90% 1.2 mph SE1.9 kmh SE 2.3 mph3.7 kmh 28.16 in953.6 mb - 0.00 in0.0 mm 0.00 in0.0 mm
12:19 AM 69.1°F20.6°C 66.0°F18.9°C 90% 1.2 mph SE1.9 kmh SE 2.3 mph3.7 kmh 28.16 in953.6 mb - 0.00 in0.0 mm 0.00 in0.0 mm
12:20 AM 69.1°F20.6°C 66.0°F18.9°C 90% 2.3 mph SE3.7 kmh SE 2.3 mph3.7 kmh 28.16 in953.6 mb - 0.00 in0.0 mm 0.00 in0.0 mm
12:21 AM 69.1°F20.6°C 66.0°F18.9°C 90% 1.2 mph E1.9 kmh E 1.2 mph1.9 kmh 28.16 in953.6 mb - 0.00 in0.0 mm 0.00 in0.0 mm
12:22 AM 69.1°F20.6°C 66.0°F18.9°C 90% Calm Calm -- 28.16 in953.6 mb - 0.00 in0.0 mm 0.00 in0.0 mm
12:23 AM 69.1°F20.6°C 66.0°F18.9°C 90% Calm Calm 2.3 mph3.7 kmh 28.16 in953.6 mb - 0.00 in0.0 mm 0.00 in0.0 mm
12:24 AM 69.1°F20.6°C 66.0°F18.9°C 90% 2.3 mph SSE3.7 kmh SSE 4.6 mph7.4 kmh 28.16 in953.6 mb - 0.00 in0.0 mm 0.00 in0.0 mm
12:25 AM 69.1°F20.6°C 66.0°F18.9°C 90% 2.3 mph SSE3.7 kmh SSE 4.6 mph7.4 kmh 28.16 in953.6 mb - 0.00 in0.0 mm 0.00 in0.0 mm
12:26 AM 69.1°F20.6°C 66.0°F18.9°C 90% 2.3 mph S3.7 kmh S 3.5 mph5.6 kmh 28.16 in953.6 mb - 0.00 in0.0 mm 0.00 in0.0 mm
12:27 AM 69.1°F20.6°C 66.0°F18.9°C 90% 2.3 mph SSE3.7 kmh SSE 2.3 mph3.7 kmh 28.16 in953.6 mb - 0.00 in0.0 mm 0.00 in0.0 mm
12:28 AM 69.1°F20.6°C 66.0°F18.9°C 90% 2.3 mph NE3.7 kmh NE 2.3 mph3.7 kmh 28.16 in953.6 mb - 0.00 in0.0 mm 0.00 in0.0 mm
12:29 AM 69.1°F20.6°C 66.0°F18.9°C 90% 2.3 mph S3.7 kmh S 3.5 mph5.6 kmh 28.16 in953.6 mb - 0.00 in0.0 mm 0.00 in0.0 mm
12:30 AM 69.1°F20.6°C 66.0°F18.9°C 90% 2.3 mph SE3.7 kmh SE 2.3 mph3.7 kmh 28.16 in953.6 mb - 0.00 in0.0 mm 0.00 in0.0 mm
12:31 AM 69.1°F20.6°C 66.0°F18.9°C 90% 2.3 mph SSE3.7 kmh SSE 2.3 mph3.7 kmh 28.16 in953.6 mb - 0.00 in0.0 mm 0.00 in0.0 mm
12:32 AM 69.1°F20.6°C 66.0°F18.9°C 90% 1.2 mph SE1.9 kmh SE 2.3 mph3.7 kmh 28.16 in953.6 mb - 0.00 in0.0 mm 0.00 in0.0 mm
12:33 AM 69.1°F20.6°C 66.0°F18.9°C 90% 2.3 mph SE3.7 kmh SE 2.3 mph3.7 kmh 28.16 in953.6 mb - 0.00 in0.0 mm 0.00 in0.0 mm
12:34 AM 69.1°F20.6°C 66.0°F18.9°C 90% 1.2 mph SE1.9 kmh SE 2.3 mph3.7 kmh 28.16 in953.6 mb - 0.00 in0.0 mm 0.00 in0.0 mm
12:35 AM 69.1°F20.6°C 66.0°F18.9°C 90% 2.3 mph SE3.7 kmh SE 2.3 mph3.7 kmh 28.16 in953.6 mb - 0.00 in0.0 mm 0.00 in0.0 mm
12:36 AM 69.1°F20.6°C 66.0°F18.9°C 90% 2.3 mph SE3.7 kmh SE 3.5 mph5.6 kmh 28.16 in953.6 mb - 0.00 in0.0 mm 0.00 in0.0 mm
12:37 AM 68.9°F20.5°C 65.8°F18.8°C 90% 2.3 mph ESE3.7 kmh ESE 2.3 mph3.7 kmh 28.15 in953.3 mb - 0.00 in0.0 mm 0.00 in0.0 mm
12:38 AM 68.9°F20.5°C 65.8°F18.8°C 90% 2.3 mph ESE3.7 kmh ESE 2.3 mph3.7 kmh 28.15 in953.3 mb - 0.00 in0.0 mm 0.00 in0.0 mm
12:39 AM 68.9°F20.5°C 65.8°F18.8°C 90% 1.2 mph SSE1.9 kmh SSE 2.3 mph3.7 kmh 28.15 in953.3 mb - 0.00 in0.0 mm 0.00 in0.0 mm
12:40 AM 68.9°F20.5°C 65.8°F18.8°C 90% 1.2 mph SSE1.9 kmh SSE 1.2 mph1.9 kmh 28.15 in953.3 mb - 0.00 in0.0 mm 0.00 in0.0 mm
12:41 AM 68.9°F20.5°C 65.8°F18.8°C 90% 2.3 mph S3.7 kmh S 3.5 mph5.6 kmh 28.15 in953.3 mb - 0.00 in0.0 mm 0.00 in0.0 mm
12:42 AM 68.9°F20.5°C 65.8°F18.8°C 90% 3.5 mph SSE5.6 kmh SSE 3.5 mph5.6 kmh 28.15 in953.3 mb - 0.00 in0.0 mm 0.00 in0.0 mm
12:43 AM 68.9°F20.5°C 65.8°F18.8°C 90% 2.3 mph SE3.7 kmh SE 3.5 mph5.6 kmh 28.15 in953.3 mb - 0.00 in0.0 mm 0.00 in0.0 mm
12:44 AM 68.9°F20.5°C 65.8°F18.8°C 90% 2.3 mph S3.7 kmh S 3.5 mph5.6 kmh 28.15 in953.3 mb - 0.00 in0.0 mm 0.00 in0.0 mm
12:45 AM 68.9°F20.5°C 65.8°F18.8°C 90% 1.2 mph SE1.9 kmh SE 2.3 mph3.7 kmh 28.15 in953.3 mb - 0.00 in0.0 mm 0.00 in0.0 mm
12:46 AM 68.9°F20.5°C 65.8°F18.8°C 90% 2.3 mph SSE3.7 kmh SSE 2.3 mph3.7 kmh 28.15 in953.3 mb - 0.00 in0.0 mm 0.00 in0.0 mm
12:47 AM 68.9°F20.5°C 65.9°F18.8°C 90% 2.3 mph SSW3.7 kmh SSW 3.5 mph5.6 kmh 28.15 in953.3 mb - 0.00 in0.0 mm 0.00 in0.0 mm
12:48 AM 69.1°F20.6°C 66.0°F18.9°C 90% 2.3 mph S3.7 kmh S 2.3 mph3.7 kmh 28.15 in953.3 mb - 0.00 in0.0 mm 0.00 in0.0 mm
12:49 AM 69.1°F20.6°C 66.0°F18.9°C 90% 1.2 mph S1.9 kmh S 1.2 mph1.9 kmh 28.16 in953.6 mb - 0.00 in0.0 mm 0.00 in0.0 mm
12:50 AM 69.1°F20.6°C 66.0°F18.9°C 90% 1.2 mph SSE1.9 kmh SSE 1.2 mph1.9 kmh 28.16 in953.6 mb - 0.00 in0.0 mm 0.00 in0.0 mm
12:51 AM 69.1°F20.6°C 66.0°F18.9°C 90% Calm Calm -- 28.16 in953.6 mb - 0.00 in0.0 mm 0.00 in0.0 mm
12:52 AM 69.1°F20.6°C 66.0°F18.9°C 90% 1.2 mph SW1.9 kmh SW 2.3 mph3.7 kmh 28.16 in953.6 mb - 0.00 in0.0 mm 0.00 in0.0 mm
12:53 AM 69.1°F20.6°C 66.0°F18.9°C 90% 1.2 mph S1.9 kmh S 1.2 mph1.9 kmh 28.16 in953.6 mb - 0.00 in0.0 mm 0.00 in0.0 mm
12:54 AM 69.1°F20.6°C 66.0°F18.9°C 90% Calm Calm 1.2 mph1.9 kmh 28.16 in953.6 mb - 0.00 in0.0 mm 0.00 in0.0 mm
12:55 AM 68.9°F20.5°C 65.8°F18.8°C 90% 1.2 mph SSE1.9 kmh SSE 3.5 mph5.6 kmh 28.16 in953.6 mb - 0.00 in0.0 mm 0.00 in0.0 mm
12:56 AM 68.9°F20.5°C 65.8°F18.8°C 90% 2.3 mph SSE3.7 kmh SSE 2.3 mph3.7 kmh 28.16 in953.6 mb - 0.00 in0.0 mm 0.00 in0.0 mm
12:57 AM 68.8°F20.4°C 65.8°F18.8°C 90% 2.3 mph SE3.7 kmh SE 1.2 mph1.9 kmh 28.16 in953.6 mb - 0.00 in0.0 mm 0.00 in0.0 mm
12:58 AM 68.7°F20.4°C 65.6°F18.7°C 90% 1.2 mph SSE1.9 kmh SSE 3.5 mph5.6 kmh 28.16 in953.6 mb - 0.00 in0.0 mm 0.00 in0.0 mm
12:59 AM 68.7°F20.4°C 65.6°F18.7°C 90% 2.3 mph SSE3.7 kmh SSE 3.5 mph5.6 kmh 28.16 in953.6 mb - 0.00 in0.0 mm 0.00 in0.0 mm
01:00 AM 68.7°F20.4°C 65.6°F18.7°C 90% 1.2 mph SE1.9 kmh SE 2.3 mph3.7 kmh 28.16 in953.6 mb - 0.00 in0.0 mm 0.00 in0.0 mm
01:01 AM 68.7°F20.4°C 65.6°F18.7°C 90% 2.3 mph SSE3.7 kmh SSE 2.3 mph3.7 kmh 28.15 in953.3 mb - 0.00 in0.0 mm 0.00 in0.0 mm
01:02 AM 68.7°F20.4°C 65.6°F18.7°C 90% 2.3 mph SE3.7 kmh SE 2.3 mph3.7 kmh 28.15 in953.3 mb - 0.00 in0.0 mm 0.00 in0.0 mm
01:03 AM 68.6°F20.3°C 65.5°F18.6°C 90% 2.3 mph S3.7 kmh S 2.3 mph3.7 kmh 28.15 in953.3 mb - 0.00 in0.0 mm 0.00 in0.0 mm
01:04 AM 68.5°F20.3°C 65.4°F18.6°C 90% 1.2 mph SE1.9 kmh SE 2.3 mph3.7 kmh 28.15 in953.3 mb - 0.00 in0.0 mm 0.00 in0.0 mm
01:05 AM 68.5°F20.3°C 65.4°F18.6°C 90% 2.3 mph ESE3.7 kmh ESE 4.6 mph7.4 kmh 28.15 in953.3 mb - 0.00 in0.0 mm 0.00 in0.0 mm
01:06 AM 68.5°F20.3°C 65.4°F18.6°C 90% 3.5 mph SSE5.6 kmh SSE 3.5 mph5.6 kmh 28.15 in953.3 mb - 0.00 in0.0 mm 0.00 in0.0 mm
01:07 AM 68.5°F20.3°C 65.4°F18.6°C 90% 2.3 mph S3.7 kmh S 3.5 mph5.6 kmh 28.15 in953.3 mb - 0.00 in0.0 mm 0.00 in0.0 mm
01:08 AM 68.5°F20.3°C 65.4°F18.6°C 90% 1.2 mph SE1.9 kmh SE 1.2 mph1.9 kmh 28.15 in953.3 mb - 0.00 in0.0 mm 0.00 in0.0 mm
01:09 AM 68.5°F20.3°C 65.4°F18.6°C 90% 2.3 mph E3.7 kmh E 3.5 mph5.6 kmh 28.15 in953.3 mb - 0.00 in0.0 mm 0.00 in0.0 mm
01:10 AM 68.5°F20.3°C 65.4°F18.6°C 90% 2.3 mph SSE3.7 kmh SSE 3.5 mph5.6 kmh 28.15 in953.3 mb - 0.00 in0.0 mm 0.00 in0.0 mm
01:11 AM 68.5°F20.3°C 65.4°F18.6°C 90% 3.5 mph S5.6 kmh S 4.6 mph7.4 kmh 28.15 in953.3 mb - 0.00 in0.0 mm 0.00 in0.0 mm
01:12 AM 68.5°F20.3°C 65.4°F18.6°C 90% 3.5 mph S5.6 kmh S 3.5 mph5.6 kmh 28.15 in953.3 mb - 0.00 in0.0 mm 0.00 in0.0 mm
01:13 AM 68.5°F20.3°C 65.4°F18.6°C 90% 1.2 mph SSE1.9 kmh SSE 3.5 mph5.6 kmh 28.15 in953.3 mb - 0.00 in0.0 mm 0.00 in0.0 mm
01:14 AM 68.5°F20.3°C 65.4°F18.6°C 90% 2.3 mph S3.7 kmh S 4.6 mph7.4 kmh 28.15 in953.3 mb - 0.00 in0.0 mm 0.00 in0.0 mm
01:15 AM 68.5°F20.3°C 65.4°F18.6°C 90% 3.5 mph SSE5.6 kmh SSE 2.3 mph3.7 kmh 28.15 in953.3 mb - 0.00 in0.0 mm 0.00 in0.0 mm
01:16 AM 68.5°F20.3°C 65.4°F18.6°C 90% 2.3 mph S3.7 kmh S 4.6 mph7.4 kmh 28.15 in953.3 mb - 0.00 in0.0 mm 0.00 in0.0 mm
01:17 AM 68.5°F20.3°C 65.4°F18.6°C 90% 3.5 mph S5.6 kmh S 4.6 mph7.4 kmh 28.15 in953.3 mb - 0.00 in0.0 mm 0.00 in0.0 mm
01:18 AM 68.5°F20.3°C 65.4°F18.6°C 90% 2.3 mph S3.7 kmh S 2.3 mph3.7 kmh 28.15 in953.3 mb - 0.00 in0.0 mm 0.00 in0.0 mm
01:19 AM 68.5°F20.3°C 65.4°F18.6°C 90% 2.3 mph SSW3.7 kmh SSW 2.3 mph3.7 kmh 28.15 in953.3 mb - 0.00 in0.0 mm 0.00 in0.0 mm
01:20 AM 68.5°F20.3°C 65.4°F18.6°C 90% Calm Calm -- 28.15 in953.3 mb - 0.00 in0.0 mm 0.00 in0.0 mm
01:21 AM 68.5°F20.3°C 65.4°F18.6°C 90% Calm Calm -- 28.15 in953.3 mb - 0.00 in0.0 mm 0.00 in0.0 mm
01:22 AM 68.5°F20.3°C 65.4°F18.6°C 90% Calm Calm -- 28.15 in953.3 mb - 0.00 in0.0 mm 0.00 in0.0 mm
01:23 AM 68.5°F20.3°C 65.4°F18.6°C 90% Calm Calm -- 28.15 in953.3 mb - 0.00 in0.0 mm 0.00 in0.0 mm
01:24 AM 68.5°F20.3°C 65.4°F18.6°C 90% Calm Calm -- 28.15 in953.3 mb - 0.00 in0.0 mm 0.00 in0.0 mm
01:25 AM 68.5°F20.3°C 65.4°F18.6°C 90% Calm Calm -- 28.15 in953.3 mb - 0.00 in0.0 mm 0.00 in0.0 mm
01:26 AM 68.5°F20.3°C 65.4°F18.6°C 90% Calm Calm -- 28.15 in953.3 mb - 0.00 in0.0 mm 0.00 in0.0 mm
01:27 AM 68.4°F20.2°C 65.4°F18.6°C 90% Calm Calm -- 28.15 in953.3 mb - 0.00 in0.0 mm 0.00 in0.0 mm
01:28 AM 68.4°F20.2°C 65.4°F18.6°C 90% Calm Calm -- 28.15 in953.3 mb - 0.00 in0.0 mm 0.00 in0.0 mm
01:29 AM 68.4°F20.2°C 65.4°F18.6°C 90% Calm Calm -- 28.15 in953.3 mb - 0.00 in0.0 mm 0.00 in0.0 mm
01:30 AM 68.4°F20.2°C 65.4°F18.6°C 90% Calm Calm -- 28.15 in953.3 mb - 0.00 in0.0 mm 0.00 in0.0 mm
01:31 AM 68.3°F20.2°C 65.3°F18.5°C 90% Calm Calm -- 28.15 in953.3 mb - 0.00 in0.0 mm 0.00 in0.0 mm
01:32 AM 68.2°F20.1°C 65.2°F18.4°C 90% Calm Calm -- 28.15 in953.3 mb - 0.00 in0.0 mm 0.00 in0.0 mm
01:33 AM 68.2°F20.1°C 65.5°F18.6°C 91% Calm Calm -- 28.15 in953.3 mb - 0.00 in0.0 mm 0.00 in0.0 mm
01:34 AM 68.2°F20.1°C 65.5°F18.6°C 91% Calm Calm -- 28.15 in953.3 mb - 0.00 in0.0 mm 0.00 in0.0 mm
01:35 AM 68.2°F20.1°C 65.5°F18.6°C 91% Calm Calm -- 28.15 in953.3 mb - 0.00 in0.0 mm 0.00 in0.0 mm
01:36 AM 68.2°F20.1°C 65.5°F18.6°C 91% Calm Calm -- 28.15 in953.3 mb - 0.00 in0.0 mm 0.00 in0.0 mm
01:37 AM 68.2°F20.1°C 65.5°F18.6°C 91% Calm Calm -- 28.15 in953.3 mb - 0.00 in0.0 mm 0.00 in0.0 mm
01:38 AM 68.1°F20.1°C 65.4°F18.6°C 91% Calm Calm -- 28.15 in953.3 mb - 0.00 in0.0 mm 0.00 in0.0 mm
01:39 AM 68.0°F20.0°C 65.3°F18.5°C 91% Calm Calm -- 28.15 in953.3 mb - 0.00 in0.0 mm 0.00 in0.0 mm
01:40 AM 68.0°F20.0°C 65.3°F18.5°C 91% Calm Calm -- 28.15 in953.3 mb - 0.00 in0.0 mm 0.00 in0.0 mm
01:41 AM 68.0°F20.0°C 65.3°F18.5°C 91% Calm Calm -- 28.15 in953.3 mb - 0.00 in0.0 mm 0.00 in0.0 mm
01:42 AM 68.0°F20.0°C 65.3°F18.5°C 91% Calm Calm -- 28.15 in953.3 mb - 0.00 in0.0 mm 0.00 in0.0 mm
01:43 AM 68.0°F20.0°C 65.3°F18.5°C 91% Calm Calm -- 28.15 in953.3 mb - 0.00 in0.0 mm 0.00 in0.0 mm
01:44 AM 68.0°F20.0°C 65.3°F18.5°C 91% Calm Calm -- 28.15 in953.3 mb - 0.00 in0.0 mm 0.00 in0.0 mm
01:45 AM 67.8°F19.9°C 65.1°F18.4°C 91% Calm Calm -- 28.15 in953.3 mb - 0.00 in0.0 mm 0.00 in0.0 mm
01:46 AM 67.8°F19.9°C 65.1°F18.4°C 91% Calm Calm -- 28.15 in953.3 mb - 0.00 in0.0 mm 0.00 in0.0 mm
01:47 AM 67.8°F19.9°C 65.1°F18.4°C 91% Calm Calm -- 28.15 in953.3 mb - 0.00 in0.0 mm 0.00 in0.0 mm
01:48 AM 67.8°F19.9°C 65.1°F18.4°C 91% Calm Calm -- 28.15 in953.3 mb - 0.00 in0.0 mm 0.00 in0.0 mm
01:49 AM 67.8°F19.9°C 65.1°F18.4°C 91% Calm Calm -- 28.14 in952.9 mb - 0.00 in0.0 mm 0.00 in0.0 mm
01:50 AM 67.8°F19.9°C 65.1°F18.4°C 91% Calm Calm -- 28.14 in952.9 mb - 0.00 in0.0 mm 0.00 in0.0 mm
01:51 AM 67.7°F19.8°C 65.3°F18.5°C 92% Calm Calm -- 28.14 in952.9 mb - 0.00 in0.0 mm 0.00 in0.0 mm
01:52 AM 67.6°F19.8°C 65.2°F18.4°C 92% Calm Calm -- 28.14 in952.9 mb - 0.00 in0.0 mm 0.00 in0.0 mm
01:53 AM 67.6°F19.8°C 65.2°F18.4°C 92% Calm Calm -- 28.14 in952.9 mb - 0.00 in0.0 mm 0.00 in0.0 mm
01:54 AM 67.6°F19.8°C 65.2°F18.4°C 92% Calm Calm -- 28.14 in952.9 mb - 0.00 in0.0 mm 0.00 in0.0 mm
01:55 AM 67.6°F19.8°C 65.2°F18.4°C 92% Calm Calm -- 28.14 in952.9 mb - 0.00 in0.0 mm 0.00 in0.0 mm
01:56 AM 67.6°F19.8°C 65.2°F18.4°C 92% Calm Calm -- 28.14 in952.9 mb - 0.00 in0.0 mm 0.00 in0.0 mm
01:57 AM 67.6°F19.8°C 65.2°F18.4°C 92% Calm Calm -- 28.14 in952.9 mb - 0.00 in0.0 mm 0.00 in0.0 mm
01:58 AM 67.6°F19.8°C 65.2°F18.4°C 92% Calm Calm -- 28.14 in952.9 mb - 0.00 in0.0 mm 0.00 in0.0 mm
01:59 AM 67.6°F19.8°C 65.2°F18.4°C 92% Calm Calm -- 28.14 in952.9 mb - 0.00 in0.0 mm 0.00 in0.0 mm
02:00 AM 67.6°F19.8°C 65.2°F18.4°C 92% Calm Calm -- 28.14 in952.9 mb - 0.00 in0.0 mm 0.00 in0.0 mm
02:01 AM 67.6°F19.8°C 65.2°F18.4°C 92% Calm Calm -- 28.14 in952.9 mb - 0.00 in0.0 mm 0.00 in0.0 mm
02:02 AM 67.6°F19.8°C 65.2°F18.4°C 92% Calm Calm -- 28.14 in952.9 mb - 0.00 in0.0 mm 0.00 in0.0 mm
02:03 AM 67.6°F19.8°C 65.2°F18.4°C 92% Calm Calm -- 28.14 in952.9 mb - 0.00 in0.0 mm 0.00 in0.0 mm
02:04 AM 67.6°F19.8°C 65.2°F18.4°C 92% Calm Calm -- 28.14 in952.9 mb - 0.00 in0.0 mm 0.00 in0.0 mm
02:05 AM 67.6°F19.8°C 65.2°F18.4°C 92% Calm Calm -- 28.14 in952.9 mb - 0.00 in0.0 mm 0.00 in0.0 mm
02:06 AM 67.6°F19.8°C 65.2°F18.4°C 92% Calm Calm -- 28.14 in952.9 mb - 0.00 in0.0 mm 0.00 in0.0 mm
02:07 AM 67.6°F19.8°C 65.2°F18.4°C 92% Calm Calm -- 28.14 in952.9 mb - 0.00 in0.0 mm 0.00 in0.0 mm
02:08 AM 67.6°F19.8°C 65.2°F18.4°C 92% Calm Calm -- 28.14 in952.9 mb - 0.00 in0.0 mm 0.00 in0.0 mm
02:09 AM 67.6°F19.8°C 65.2°F18.4°C 92% Calm Calm -- 28.14 in952.9 mb - 0.00 in0.0 mm 0.00 in0.0 mm
02:10 AM 67.6°F19.8°C 65.2°F18.4°C 92% Calm Calm -- 28.14 in952.9 mb - 0.00 in0.0 mm 0.00 in0.0 mm
02:11 AM 67.6°F19.8°C 65.2°F18.4°C 92% Calm Calm -- 28.14 in952.9 mb - 0.00 in0.0 mm 0.00 in0.0 mm
02:12 AM 67.6°F19.8°C 65.2°F18.4°C 92% Calm Calm 1.2 mph1.9 kmh 28.14 in952.9 mb - 0.00 in0.0 mm 0.00 in0.0 mm
02:13 AM 67.6°F19.8°C 65.2°F18.4°C 92% 1.2 mph SSE1.9 kmh SSE 1.2 mph1.9 kmh 28.14 in952.9 mb - 0.00 in0.0 mm 0.00 in0.0 mm
02:14 AM 67.6°F19.8°C 65.2°F18.4°C 92% 1.2 mph SSE1.9 kmh SSE 1.2 mph1.9 kmh 28.14 in952.9 mb - 0.00 in0.0 mm 0.00 in0.0 mm
02:15 AM 67.6°F19.8°C 65.2°F18.4°C 92% 1.2 mph SE1.9 kmh SE 1.2 mph1.9 kmh 28.14 in952.9 mb - 0.00 in0.0 mm 0.00 in0.0 mm
02:16 AM 67.6°F19.8°C 65.2°F18.4°C 92% Calm Calm 2.3 mph3.7 kmh 28.14 in952.9 mb - 0.00 in0.0 mm 0.00 in0.0 mm
02:17 AM 67.6°F19.8°C 65.2°F18.4°C 92% 1.2 mph ESE1.9 kmh ESE 2.3 mph3.7 kmh 28.14 in952.9 mb - 0.00 in0.0 mm 0.00 in0.0 mm
02:18 AM 67.6°F19.8°C 65.2°F18.4°C 92% Calm Calm 2.3 mph3.7 kmh 28.14 in952.9 mb - 0.00 in0.0 mm 0.00 in0.0 mm
02:19 AM 67.6°F19.8°C 65.2°F18.4°C 92% 1.2 mph SE1.9 kmh SE 2.3 mph3.7 kmh 28.14 in952.9 mb - 0.00 in0.0 mm 0.00 in0.0 mm
02:20 AM 67.6°F19.8°C 65.2°F18.4°C 92% 1.2 mph ESE1.9 kmh ESE 1.2 mph1.9 kmh 28.14 in952.9 mb - 0.00 in0.0 mm 0.00 in0.0 mm
02:21 AM 67.6°F19.8°C 65.2°F18.4°C 92% Calm Calm 3.5 mph5.6 kmh 28.14 in952.9 mb - 0.00 in0.0 mm 0.00 in0.0 mm
02:22 AM 67.6°F19.8°C 65.2°F18.4°C 92% 2.3 mph SE3.7 kmh SE 3.5 mph5.6 kmh 28.14 in952.9 mb - 0.00 in0.0 mm 0.00 in0.0 mm
02:23 AM 67.6°F19.8°C 65.2°F18.4°C 92% 2.3 mph SSE3.7 kmh SSE 2.3 mph3.7 kmh 28.14 in952.9 mb - 0.00 in0.0 mm 0.00 in0.0 mm
02:24 AM 67.6°F19.8°C 65.2°F18.4°C 92% 2.3 mph S3.7 kmh S 2.3 mph3.7 kmh 28.14 in952.9 mb - 0.00 in0.0 mm 0.00 in0.0 mm
02:25 AM 67.6°F19.8°C 65.2°F18.4°C 92% 2.3 mph SE3.7 kmh SE 2.3 mph3.7 kmh 28.13 in952.6 mb - 0.00 in0.0 mm 0.00 in0.0 mm
02:26 AM 67.6°F19.8°C 65.2°F18.4°C 92% 2.3 mph SE3.7 kmh SE 2.3 mph3.7 kmh 28.13 in952.6 mb - 0.00 in0.0 mm 0.00 in0.0 mm
02:27 AM 67.6°F19.8°C 65.2°F18.4°C 92% 1.2 mph S1.9 kmh S 2.3 mph3.7 kmh 28.13 in952.6 mb - 0.00 in0.0 mm 0.00 in0.0 mm
02:28 AM 67.6°F19.8°C 65.2°F18.4°C 92% 1.2 mph SE1.9 kmh SE 3.5 mph5.6 kmh 28.13 in952.6 mb - 0.00 in0.0 mm 0.00 in0.0 mm
02:29 AM 67.6°F19.8°C 65.2°F18.4°C 92% 2.3 mph E3.7 kmh E 3.5 mph5.6 kmh 28.13 in952.6 mb - 0.00 in0.0 mm 0.00 in0.0 mm
02:30 AM 67.6°F19.8°C 65.2°F18.4°C 92% 3.5 mph S5.6 kmh S 4.6 mph7.4 kmh 28.13 in952.6 mb - 0.00 in0.0 mm 0.00 in0.0 mm
02:31 AM 67.8°F19.9°C 65.4°F18.6°C 92% 2.3 mph SSE3.7 kmh SSE 2.3 mph3.7 kmh 28.13 in952.6 mb - 0.00 in0.0 mm 0.00 in0.0 mm
02:32 AM 67.8°F19.9°C 65.4°F18.6°C 92% 2.3 mph SE3.7 kmh SE 5.8 mph9.3 kmh 28.13 in952.6 mb - 0.00 in0.0 mm 0.00 in0.0 mm
02:33 AM 67.8°F19.9°C 65.4°F18.6°C 92% 3.5 mph SSE5.6 kmh SSE 3.5 mph5.6 kmh 28.13 in952.6 mb - 0.00 in0.0 mm 0.00 in0.0 mm
02:34 AM 67.8°F19.9°C 65.4°F18.6°C 92% 1.2 mph SSE1.9 kmh SSE 2.3 mph3.7 kmh 28.13 in952.6 mb - 0.00 in0.0 mm 0.00 in0.0 mm
02:35 AM 67.8°F19.9°C 65.4°F18.6°C 92% 2.3 mph SE3.7 kmh SE 2.3 mph3.7 kmh 28.13 in952.6 mb - 0.00 in0.0 mm 0.00 in0.0 mm
02:36 AM 67.8°F19.9°C 65.4°F18.6°C 92% 1.2 mph SE1.9 kmh SE 1.2 mph1.9 kmh 28.13 in952.6 mb - 0.00 in0.0 mm 0.00 in0.0 mm
02:37 AM 67.8°F19.9°C 65.4°F18.6°C 92% 1.2 mph S1.9 kmh S 2.3 mph3.7 kmh 28.13 in952.6 mb - 0.00 in0.0 mm 0.00 in0.0 mm
02:38 AM 67.8°F19.9°C 65.4°F18.6°C 92% 1.2 mph SE1.9 kmh SE 1.2 mph1.9 kmh 28.13 in952.6 mb - 0.00 in0.0 mm 0.00 in0.0 mm
02:39 AM 67.8°F19.9°C 65.4°F18.6°C 92% Calm Calm 2.3 mph3.7 kmh 28.13 in952.6 mb - 0.00 in0.0 mm 0.00 in0.0 mm
02:40 AM 67.8°F19.9°C 65.4°F18.6°C 92% 1.2 mph ESE1.9 kmh ESE 1.2 mph1.9 kmh 28.13 in952.6 mb - 0.00 in0.0 mm 0.00 in0.0 mm
02:41 AM 67.8°F19.9°C 65.4°F18.6°C 92% 1.2 mph SSE1.9 kmh SSE 1.2 mph1.9 kmh 28.13 in952.6 mb - 0.00 in0.0 mm 0.00 in0.0 mm
02:42 AM 67.8°F19.9°C 65.4°F18.6°C 92% Calm Calm -- 28.13 in952.6 mb - 0.00 in0.0 mm 0.00 in0.0 mm
02:43 AM 67.8°F19.9°C 65.4°F18.6°C 92% Calm Calm 2.3 mph3.7 kmh 28.13 in952.6 mb - 0.00 in0.0 mm 0.00 in0.0 mm
02:44 AM 67.8°F19.9°C 65.4°F18.6°C 92% 1.2 mph ESE1.9 kmh ESE 1.2 mph1.9 kmh 28.13 in952.6 mb - 0.00 in0.0 mm 0.00 in0.0 mm
02:45 AM 67.8°F19.9°C 65.4°F18.6°C 92% Calm Calm 1.2 mph1.9 kmh 28.13 in952.6 mb - 0.00 in0.0 mm 0.00 in0.0 mm
02:46 AM 67.8°F19.9°C 65.4°F18.6°C 92% Calm Calm 1.2 mph1.9 kmh 28.13 in952.6 mb - 0.00 in0.0 mm 0.00 in0.0 mm
02:47 AM 67.8°F19.9°C 65.4°F18.6°C 92% Calm Calm 2.3 mph3.7 kmh 28.13 in952.6 mb - 0.00 in0.0 mm 0.00 in0.0 mm
02:48 AM 67.8°F19.9°C 65.4°F18.6°C 92% 1.2 mph SSE1.9 kmh SSE 2.3 mph3.7 kmh 28.13 in952.6 mb - 0.00 in0.0 mm 0.00 in0.0 mm
02:49 AM 67.8°F19.9°C 65.4°F18.6°C 92% Calm Calm -- 28.13 in952.6 mb - 0.00 in0.0 mm 0.00 in0.0 mm
02:50 AM 67.8°F19.9°C 65.4°F18.6°C 92% Calm Calm 1.2 mph1.9 kmh 28.13 in952.6 mb - 0.00 in0.0 mm 0.00 in0.0 mm
02:51 AM 67.8°F19.9°C 65.4°F18.6°C 92% 1.2 mph SE1.9 kmh SE 1.2 mph1.9 kmh 28.13 in952.6 mb - 0.00 in0.0 mm 0.00 in0.0 mm
02:52 AM 67.8°F19.9°C 65.4°F18.6°C 92% 1.2 mph SE1.9 kmh SE 1.2 mph1.9 kmh 28.13 in952.6 mb - 0.00 in0.0 mm 0.00 in0.0 mm
02:53 AM 67.8°F19.9°C 65.4°F18.6°C 92% 1.2 mph SE1.9 kmh SE 1.2 mph1.9 kmh 28.13 in952.6 mb - 0.00 in0.0 mm 0.00 in0.0 mm
02:54 AM 67.8°F19.9°C 65.4°F18.6°C 92% 1.2 mph SSE1.9 kmh SSE 2.3 mph3.7 kmh 28.13 in952.6 mb - 0.00 in0.0 mm 0.00 in0.0 mm
02:55 AM 67.8°F19.9°C 65.4°F18.6°C 92% 1.2 mph SE1.9 kmh SE 2.3 mph3.7 kmh 28.13 in952.6 mb - 0.00 in0.0 mm 0.00 in0.0 mm
02:56 AM 67.8°F19.9°C 65.4°F18.6°C 92% 1.2 mph S1.9 kmh S 2.3 mph3.7 kmh 28.13 in952.6 mb - 0.00 in0.0 mm 0.00 in0.0 mm
02:57 AM 67.8°F19.9°C 65.4°F18.6°C 92% Calm Calm -- 28.13 in952.6 mb - 0.00 in0.0 mm 0.00 in0.0 mm
02:58 AM 67.8°F19.9°C 65.4°F18.6°C 92% Calm Calm -- 28.13 in952.6 mb - 0.00 in0.0 mm 0.00 in0.0 mm
02:59 AM 67.8°F19.9°C 65.4°F18.6°C 92% Calm Calm 1.2 mph1.9 kmh 28.13 in952.6 mb - 0.00 in0.0 mm 0.00 in0.0 mm
03:00 AM 67.8°F19.9°C 65.4°F18.6°C 92% 1.2 mph SSE1.9 kmh SSE 1.2 mph1.9 kmh 28.13 in952.6 mb - 0.00 in0.0 mm 0.00 in0.0 mm
03:01 AM 67.8°F19.9°C 65.4°F18.6°C 92% Calm Calm -- 28.13 in952.6 mb - 0.00 in0.0 mm 0.00 in0.0 mm
03:02 AM 67.8°F19.9°C 65.4°F18.6°C 92% Calm Calm 2.3 mph3.7 kmh 28.13 in952.6 mb - 0.00 in0.0 mm 0.00 in0.0 mm
03:03 AM 67.8°F19.9°C 65.4°F18.6°C 92% 1.2 mph S1.9 kmh S 2.3 mph3.7 kmh 28.13 in952.6 mb - 0.00 in0.0 mm 0.00 in0.0 mm
03:04 AM 67.8°F19.9°C 65.4°F18.6°C 92% 1.2 mph SSE1.9 kmh SSE 2.3 mph3.7 kmh 28.13 in952.6 mb - 0.00 in0.0 mm 0.00 in0.0 mm
03:05 AM 67.8°F19.9°C 65.4°F18.6°C 92% 1.2 mph SE1.9 kmh SE 1.2 mph1.9 kmh 28.13 in952.6 mb - 0.00 in0.0 mm 0.00 in0.0 mm
03:06 AM 67.8°F19.9°C 65.4°F18.6°C 92% 1.2 mph SE1.9 kmh SE 1.2 mph1.9 kmh 28.13 in952.6 mb - 0.00 in0.0 mm 0.00 in0.0 mm
03:07 AM 67.8°F19.9°C 65.4°F18.6°C 92% Calm Calm -- 28.13 in952.6 mb - 0.00 in0.0 mm 0.00 in0.0 mm
03:08 AM 67.8°F19.9°C 65.4°F18.6°C 92% Calm Calm 1.2 mph1.9 kmh 28.13 in952.6 mb - 0.00 in0.0 mm 0.00 in0.0 mm
03:09 AM 67.8°F19.9°C 65.4°F18.6°C 92% 1.2 mph S1.9 kmh S 1.2 mph1.9 kmh 28.13 in952.6 mb - 0.00 in0.0 mm 0.00 in0.0 mm
03:10 AM 67.8°F19.9°C 65.4°F18.6°C 92% Calm Calm -- 28.13 in952.6 mb - 0.00 in0.0 mm 0.00 in0.0 mm
03:11 AM 67.8°F19.9°C 65.4°F18.6°C 92% Calm Calm -- 28.13 in952.6 mb - 0.00 in0.0 mm 0.00 in0.0 mm
03:12 AM 67.8°F19.9°C 65.4°F18.6°C 92% Calm Calm -- 28.13 in952.6 mb - 0.00 in0.0 mm 0.00 in0.0 mm
03:13 AM 67.7°F19.8°C 65.2°F18.4°C 92% Calm Calm -- 28.13 in952.6 mb - 0.00 in0.0 mm 0.00 in0.0 mm
03:14 AM 67.6°F19.8°C 65.2°F18.4°C 92% Calm Calm -- 28.13 in952.6 mb - 0.00 in0.0 mm 0.00 in0.0 mm
03:15 AM 67.6°F19.8°C 65.2°F18.4°C 92% Calm Calm -- 28.13 in952.6 mb - 0.00 in0.0 mm 0.00 in0.0 mm
03:16 AM 67.6°F19.8°C 65.2°F18.4°C 92% Calm Calm -- 28.13 in952.6 mb - 0.00 in0.0 mm 0.00 in0.0 mm
03:17 AM 67.6°F19.8°C 65.2°F18.4°C 92% Calm Calm -- 28.13 in952.6 mb - 0.00 in0.0 mm 0.00 in0.0 mm
03:18 AM 67.6°F19.8°C 65.2°F18.4°C 92% Calm Calm -- 28.13 in952.6 mb - 0.00 in0.0 mm 0.00 in0.0 mm
03:19 AM 67.6°F19.8°C 65.2°F18.4°C 92% Calm Calm -- 28.13 in952.6 mb - 0.00 in0.0 mm 0.00 in0.0 mm
03:20 AM 67.6°F19.8°C 65.2°F18.4°C 92% Calm Calm -- 28.13 in952.6 mb - 0.00 in0.0 mm 0.00 in0.0 mm
03:21 AM 67.6°F19.8°C 65.2°F18.4°C 92% Calm Calm -- 28.13 in952.6 mb - 0.00 in0.0 mm 0.00 in0.0 mm
03:22 AM 67.6°F19.8°C 65.2°F18.4°C 92% Calm Calm -- 28.13 in952.6 mb - 0.00 in0.0 mm 0.00 in0.0 mm
03:23 AM 67.6°F19.8°C 65.2°F18.4°C 92% Calm Calm -- 28.13 in952.6 mb - 0.00 in0.0 mm 0.00 in0.0 mm
03:24 AM 67.6°F19.8°C 65.2°F18.4°C 92% Calm Calm 1.2 mph1.9 kmh 28.13 in952.6 mb - 0.00 in0.0 mm 0.00 in0.0 mm
03:25 AM 67.6°F19.8°C 65.2°F18.4°C 92% Calm Calm 1.2 mph1.9 kmh 28.13 in952.6 mb - 0.00 in0.0 mm 0.00 in0.0 mm
03:26 AM 67.6°F19.8°C 65.2°F18.4°C 92% Calm Calm -- 28.13 in952.6 mb - 0.00 in0.0 mm 0.00 in0.0 mm
03:27 AM 67.6°F19.8°C 65.2°F18.4°C 92% Calm Calm -- 28.13 in952.6 mb - 0.00 in0.0 mm 0.00 in0.0 mm
03:28 AM 67.6°F19.8°C 65.2°F18.4°C 92% Calm Calm 1.2 mph1.9 kmh 28.13 in952.6 mb - 0.00 in0.0 mm 0.00 in0.0 mm
03:29 AM 67.6°F19.8°C 65.2°F18.4°C 92% Calm Calm -- 28.13 in952.6 mb - 0.00 in0.0 mm 0.00 in0.0 mm
03:30 AM 67.6°F19.8°C 65.2°F18.4°C 92% Calm Calm -- 28.13 in952.6 mb - 0.00 in0.0 mm 0.00 in0.0 mm
03:31 AM 67.6°F19.8°C 65.2°F18.4°C 92% Calm Calm -- 28.13 in952.6 mb - 0.00 in0.0 mm 0.00 in0.0 mm
03:32 AM 67.6°F19.8°C 65.2°F18.4°C 92% Calm Calm -- 28.13 in952.6 mb - 0.00 in0.0 mm 0.00 in0.0 mm
03:33 AM 67.6°F19.8°C 65.2°F18.4°C 92% Calm Calm -- 28.13 in952.6 mb - 0.00 in0.0 mm 0.00 in0.0 mm
03:34 AM 67.6°F19.8°C 65.2°F18.4°C 92% Calm Calm -- 28.13 in952.6 mb - 0.00 in0.0 mm 0.00 in0.0 mm
03:35 AM 67.6°F19.8°C 65.2°F18.4°C 92% Calm Calm -- 28.13 in952.6 mb - 0.00 in0.0 mm 0.00 in0.0 mm
03:36 AM 67.6°F19.8°C 65.2°F18.4°C 92% Calm Calm -- 28.13 in952.6 mb - 0.00 in0.0 mm 0.00 in0.0 mm
03:37 AM 67.6°F19.8°C 65.2°F18.4°C 92% Calm Calm -- 28.13 in952.6 mb - 0.00 in0.0 mm 0.00 in0.0 mm
03:38 AM 67.6°F19.8°C 65.2°F18.4°C 92% Calm Calm -- 28.13 in952.6 mb - 0.00 in0.0 mm 0.00 in0.0 mm
03:39 AM 67.6°F19.8°C 65.2°F18.4°C 92% Calm Calm -- 28.13 in952.6 mb - 0.00 in0.0 mm 0.00 in0.0 mm
03:40 AM 67.6°F19.8°C 65.2°F18.4°C 92% Calm Calm -- 28.13 in952.6 mb - 0.00 in0.0 mm 0.00 in0.0 mm
03:41 AM 67.6°F19.8°C 65.2°F18.4°C 92% Calm Calm -- 28.13 in952.6 mb - 0.00 in0.0 mm 0.00 in0.0 mm
03:42 AM 67.6°F19.8°C 65.2°F18.4°C 92% Calm Calm -- 28.13 in952.6 mb - 0.00 in0.0 mm 0.00 in0.0 mm
03:43 AM 67.6°F19.8°C 65.2°F18.4°C 92% Calm Calm -- 28.13 in952.6 mb - 0.00 in0.0 mm 0.00 in0.0 mm
03:44 AM 67.6°F19.8°C 65.2°F18.4°C 92% Calm Calm -- 28.13 in952.6 mb - 0.00 in0.0 mm 0.00 in0.0 mm
03:45 AM 67.6°F19.8°C 65.2°F18.4°C 92% Calm Calm -- 28.13 in952.6 mb - 0.00 in0.0 mm 0.00 in0.0 mm
03:46 AM 67.6°F19.8°C 65.2°F18.4°C 92% Calm Calm -- 28.13 in952.6 mb - 0.00 in0.0 mm 0.00 in0.0 mm
03:47 AM 67.6°F19.8°C 65.2°F18.4°C 92% Calm Calm -- 28.13 in952.6 mb - 0.00 in0.0 mm 0.00 in0.0 mm
03:48 AM 67.6°F19.8°C 65.2°F18.4°C 92% Calm Calm -- 28.13 in952.6 mb - 0.00 in0.0 mm 0.00 in0.0 mm
03:49 AM 67.6°F19.8°C 65.2°F18.4°C 92% Calm Calm -- 28.12 in952.3 mb - 0.00 in0.0 mm 0.00 in0.0 mm
03:50 AM 67.6°F19.8°C 65.2°F18.4°C 92% Calm Calm -- 28.12 in952.3 mb - 0.00 in0.0 mm 0.00 in0.0 mm
03:51 AM 67.6°F19.8°C 65.2°F18.4°C 92% Calm Calm -- 28.12 in952.3 mb - 0.00 in0.0 mm 0.00 in0.0 mm
03:52 AM 67.6°F19.8°C 65.2°F18.4°C 92% Calm Calm -- 28.12 in952.3 mb - 0.00 in0.0 mm 0.00 in0.0 mm
03:53 AM 67.6°F19.8°C 65.2°F18.4°C 92% Calm Calm -- 28.12 in952.3 mb - 0.00 in0.0 mm 0.00 in0.0 mm
03:54 AM 67.6°F19.8°C 65.2°F18.4°C 92% Calm Calm -- 28.12 in952.3 mb - 0.00 in0.0 mm 0.00 in0.0 mm
03:55 AM 67.6°F19.8°C 65.2°F18.4°C 92% Calm Calm -- 28.12 in952.3 mb - 0.00 in0.0 mm 0.00 in0.0 mm
03:56 AM 67.6°F19.8°C 65.2°F18.4°C 92% Calm Calm -- 28.12 in952.3 mb - 0.00 in0.0 mm 0.00 in0.0 mm
03:57 AM 67.6°F19.8°C 65.2°F18.4°C 92% Calm Calm -- 28.12 in952.3 mb - 0.00 in0.0 mm 0.00 in0.0 mm
03:58 AM 67.6°F19.8°C 65.2°F18.4°C 92% Calm Calm -- 28.12 in952.3 mb - 0.00 in0.0 mm 0.00 in0.0 mm
03:59 AM 67.6°F19.8°C 65.2°F18.4°C 92% Calm Calm -- 28.12 in952.3 mb - 0.00 in0.0 mm 0.00 in0.0 mm
04:00 AM 67.6°F19.8°C 65.2°F18.4°C 92% Calm Calm -- 28.12 in952.3 mb - 0.00 in0.0 mm 0.00 in0.0 mm
04:01 AM 67.6°F19.8°C 65.2°F18.4°C 92% Calm Calm -- 28.12 in952.3 mb - 0.00 in0.0 mm 0.00 in0.0 mm
04:02 AM 67.6°F19.8°C 65.2°F18.4°C 92% Calm Calm -- 28.12 in952.3 mb - 0.00 in0.0 mm 0.00 in0.0 mm
04:03 AM 67.8°F19.9°C 65.4°F18.6°C 92% Calm Calm -- 28.12 in952.3 mb - 0.00 in0.0 mm 0.00 in0.0 mm
04:04 AM 67.8°F19.9°C 65.4°F18.6°C 92% Calm Calm 1.2 mph1.9 kmh 28.12 in952.3 mb - 0.00 in0.0 mm 0.00 in0.0 mm
04:05 AM 67.8°F19.9°C 65.4°F18.6°C 92% Calm Calm 1.2 mph1.9 kmh 28.12 in952.3 mb - 0.00 in0.0 mm 0.00 in0.0 mm
04:06 AM 67.8°F19.9°C 65.4°F18.6°C 92% 1.2 mph SE1.9 kmh SE 2.3 mph3.7 kmh 28.12 in952.3 mb - 0.00 in0.0 mm 0.00 in0.0 mm
04:07 AM 67.8°F19.9°C 65.4°F18.6°C 92% 1.2 mph SE1.9 kmh SE 2.3 mph3.7 kmh 28.12 in952.3 mb - 0.00 in0.0 mm 0.00 in0.0 mm
04:08 AM 67.8°F19.9°C 65.4°F18.6°C 92% 1.2 mph SE1.9 kmh SE 1.2 mph1.9 kmh 28.12 in952.3 mb - 0.00 in0.0 mm 0.00 in0.0 mm
04:09 AM 67.8°F19.9°C 65.4°F18.6°C 92% Calm Calm -- 28.12 in952.3 mb - 0.00 in0.0 mm 0.00 in0.0 mm
04:10 AM 67.8°F19.9°C 65.4°F18.6°C 92% Calm Calm 1.2 mph1.9 kmh 28.12 in952.3 mb - 0.00 in0.0 mm 0.00 in0.0 mm
04:11 AM 67.8°F19.9°C 65.4°F18.6°C 92% 1.2 mph SE1.9 kmh SE 2.3 mph3.7 kmh 28.12 in952.3 mb - 0.00 in0.0 mm 0.00 in0.0 mm
04:12 AM 67.8°F19.9°C 65.4°F18.6°C 92% 2.3 mph SE3.7 kmh SE 2.3 mph3.7 kmh 28.12 in952.3 mb - 0.00 in0.0 mm 0.00 in0.0 mm
04:13 AM 67.8°F19.9°C 65.4°F18.6°C 92% 2.3 mph SSE3.7 kmh SSE 2.3 mph3.7 kmh 28.12 in952.3 mb - 0.00 in0.0 mm 0.00 in0.0 mm
04:14 AM 67.8°F19.9°C 65.4°F18.6°C 92% 1.2 mph SE1.9 kmh SE 1.2 mph1.9 kmh 28.12 in952.3 mb - 0.00 in0.0 mm 0.00 in0.0 mm
04:15 AM 67.8°F19.9°C 65.4°F18.6°C 92% 1.2 mph SE1.9 kmh SE 1.2 mph1.9 kmh 28.12 in952.3 mb - 0.00 in0.0 mm 0.00 in0.0 mm
04:16 AM 67.8°F19.9°C 65.4°F18.6°C 92% 1.2 mph SE1.9 kmh SE 2.3 mph3.7 kmh 28.12 in952.3 mb - 0.00 in0.0 mm 0.00 in0.0 mm
04:17 AM 67.8°F19.9°C 65.4°F18.6°C 92% 2.3 mph ESE3.7 kmh ESE 3.5 mph5.6 kmh 28.12 in952.3 mb - 0.00 in0.0 mm 0.00 in0.0 mm
04:18 AM 67.8°F19.9°C 65.4°F18.6°C 92% 1.2 mph SE1.9 kmh SE 1.2 mph1.9 kmh 28.12 in952.3 mb - 0.00 in0.0 mm 0.00 in0.0 mm
04:19 AM 67.8°F19.9°C 65.4°F18.6°C 92% Calm Calm -- 28.12 in952.3 mb - 0.00 in0.0 mm 0.00 in0.0 mm
04:20 AM 67.8°F19.9°C 65.4°F18.6°C 92% Calm Calm 3.5 mph5.6 kmh 28.12 in952.3 mb - 0.00 in0.0 mm 0.00 in0.0 mm
04:21 AM 67.9°F19.9°C 65.5°F18.6°C 92% 1.2 mph S1.9 kmh S 3.5 mph5.6 kmh 28.12 in952.3 mb - 0.00 in0.0 mm 0.00 in0.0 mm
04:22 AM 68.0°F20.0°C 65.6°F18.7°C 92% 2.3 mph SE3.7 kmh SE 2.3 mph3.7 kmh 28.12 in952.3 mb - 0.00 in0.0 mm 0.00 in0.0 mm
04:23 AM 68.0°F20.0°C 65.6°F18.7°C 92% 1.2 mph SE1.9 kmh SE 1.2 mph1.9 kmh 28.12 in952.3 mb - 0.00 in0.0 mm 0.00 in0.0 mm
04:24 AM 68.0°F20.0°C 65.6°F18.7°C 92% Calm Calm 2.3 mph3.7 kmh 28.12 in952.3 mb - 0.00 in0.0 mm 0.00 in0.0 mm
04:25 AM 68.0°F20.0°C 65.6°F18.7°C 92% 1.2 mph SE1.9 kmh SE 2.3 mph3.7 kmh 28.11 in951.9 mb - 0.00 in0.0 mm 0.00 in0.0 mm
04:26 AM 68.0°F20.0°C 65.6°F18.7°C 92% Calm Calm 2.3 mph3.7 kmh 28.11 in951.9 mb - 0.00 in0.0 mm 0.00 in0.0 mm
04:27 AM 68.0°F20.0°C 65.6°F18.7°C 92% 1.2 mph SE1.9 kmh SE 2.3 mph3.7 kmh 28.11 in951.9 mb - 0.00 in0.0 mm 0.00 in0.0 mm
04:28 AM 68.0°F20.0°C 65.6°F18.7°C 92% 2.3 mph SSE3.7 kmh SSE 2.3 mph3.7 kmh 28.11 in951.9 mb - 0.00 in0.0 mm 0.00 in0.0 mm
04:29 AM 68.0°F20.0°C 65.6°F18.7°C 92% 2.3 mph S3.7 kmh S 2.3 mph3.7 kmh 28.11 in951.9 mb - 0.00 in0.0 mm 0.00 in0.0 mm
04:30 AM 68.0°F20.0°C 65.6°F18.7°C 92% 1.2 mph SSE1.9 kmh SSE 1.2 mph1.9 kmh 28.11 in951.9 mb - 0.00 in0.0 mm 0.00 in0.0 mm
04:31 AM 68.0°F20.0°C 65.6°F18.7°C 92% Calm Calm -- 28.11 in951.9 mb - 0.00 in0.0 mm 0.00 in0.0 mm
04:32 AM 68.0°F20.0°C 65.6°F18.7°C 92% 1.2 mph SSE1.9 kmh SSE 3.5 mph5.6 kmh 28.11 in951.9 mb - 0.00 in0.0 mm 0.00 in0.0 mm
04:33 AM 68.0°F20.0°C 65.6°F18.7°C 92% 1.2 mph S1.9 kmh S 1.2 mph1.9 kmh 28.11 in951.9 mb - 0.00 in0.0 mm 0.00 in0.0 mm
04:34 AM 68.0°F20.0°C 65.6°F18.7°C 92% Calm Calm 1.2 mph1.9 kmh 28.11 in951.9 mb - 0.00 in0.0 mm 0.00 in0.0 mm
04:35 AM 68.0°F20.0°C 65.6°F18.7°C 92% Calm Calm -- 28.11 in951.9 mb - 0.00 in0.0 mm 0.00 in0.0 mm
04:36 AM 68.0°F20.0°C 65.6°F18.7°C 92% Calm Calm -- 28.11 in951.9 mb - 0.00 in0.0 mm 0.00 in0.0 mm
04:37 AM 68.0°F20.0°C 65.6°F18.7°C 92% Calm Calm 1.2 mph1.9 kmh 28.11 in951.9 mb - 0.00 in0.0 mm 0.00 in0.0 mm
04:38 AM 68.0°F20.0°C 65.6°F18.7°C 92% 1.2 mph SSE1.9 kmh SSE 1.2 mph1.9 kmh 28.11 in951.9 mb - 0.00 in0.0 mm 0.00 in0.0 mm
04:39 AM 68.0°F20.0°C 65.6°F18.7°C 92% Calm Calm -- 28.11 in951.9 mb - 0.00 in0.0 mm 0.00 in0.0 mm
04:40 AM 68.0°F20.0°C 65.6°F18.7°C 92% Calm Calm -- 28.11 in951.9 mb - 0.00 in0.0 mm 0.00 in0.0 mm
04:41 AM 68.0°F20.0°C 65.6°F18.7°C 92% Calm Calm 1.2 mph1.9 kmh 28.11 in951.9 mb - 0.00 in0.0 mm 0.00 in0.0 mm
04:42 AM 68.0°F20.0°C 65.6°F18.7°C 92% 1.2 mph SE1.9 kmh SE 1.2 mph1.9 kmh 28.11 in951.9 mb - 0.00 in0.0 mm 0.00 in0.0 mm
04:43 AM 68.0°F20.0°C 65.6°F18.7°C 92% Calm Calm -- 28.11 in951.9 mb - 0.00 in0.0 mm 0.00 in0.0 mm
04:44 AM 68.0°F20.0°C 65.6°F18.7°C 92% Calm Calm -- 28.11 in951.9 mb - 0.00 in0.0 mm 0.00 in0.0 mm
04:45 AM 68.0°F20.0°C 65.6°F18.7°C 92% Calm Calm -- 28.11 in951.9 mb - 0.00 in0.0 mm 0.00 in0.0 mm
04:46 AM 68.0°F20.0°C 65.6°F18.7°C 92% Calm Calm -- 28.11 in951.9 mb - 0.00 in0.0 mm 0.00 in0.0 mm
04:47 AM 68.0°F20.0°C 65.6°F18.7°C 92% Calm Calm -- 28.11 in951.9 mb - 0.00 in0.0 mm 0.00 in0.0 mm
04:48 AM 68.0°F20.0°C 65.6°F18.7°C 92% Calm Calm 1.2 mph1.9 kmh 28.11 in951.9 mb - 0.00 in0.0 mm 0.00 in0.0 mm
04:49 AM 68.0°F20.0°C 65.6°F18.7°C 92% 1.2 mph SE1.9 kmh SE 1.2 mph1.9 kmh 28.11 in951.9 mb - 0.00 in0.0 mm 0.00 in0.0 mm
04:50 AM 68.0°F20.0°C 65.6°F18.7°C 92% 1.2 mph SE1.9 kmh SE 2.3 mph3.7 kmh 28.11 in951.9 mb - 0.00 in0.0 mm 0.00 in0.0 mm
04:51 AM 68.0°F20.0°C 65.6°F18.7°C 92% 1.2 mph S1.9 kmh S 1.2 mph1.9 kmh 28.11 in951.9 mb - 0.00 in0.0 mm 0.00 in0.0 mm
04:52 AM 68.0°F20.0°C 65.6°F18.7°C 92% 2.3 mph SE3.7 kmh SE 3.5 mph5.6 kmh 28.11 in951.9 mb - 0.00 in0.0 mm 0.00 in0.0 mm
04:53 AM 68.0°F20.0°C 65.6°F18.7°C 92% 2.3 mph S3.7 kmh S 2.3 mph3.7 kmh 28.11 in951.9 mb - 0.00 in0.0 mm 0.00 in0.0 mm
04:54 AM 68.0°F20.0°C 65.6°F18.7°C 92% 2.3 mph S3.7 kmh S 2.3 mph3.7 kmh 28.11 in951.9 mb - 0.00 in0.0 mm 0.00 in0.0 mm
04:55 AM 68.0°F20.0°C 65.6°F18.7°C 92% 2.3 mph S3.7 kmh S 2.3 mph3.7 kmh 28.11 in951.9 mb - 0.00 in0.0 mm 0.00 in0.0 mm
04:56 AM 68.0°F20.0°C 65.6°F18.7°C 92% 2.3 mph SSE3.7 kmh SSE 2.3 mph3.7 kmh 28.11 in951.9 mb - 0.00 in0.0 mm 0.00 in0.0 mm
04:57 AM 68.0°F20.0°C 65.6°F18.7°C 92% 2.3 mph SSE3.7 kmh SSE 2.3 mph3.7 kmh 28.11 in951.9 mb - 0.00 in0.0 mm 0.00 in0.0 mm
04:58 AM 68.0°F20.0°C 65.6°F18.7°C 92% 2.3 mph SE3.7 kmh SE 2.3 mph3.7 kmh 28.11 in951.9 mb - 0.00 in0.0 mm 0.00 in0.0 mm
04:59 AM 68.0°F20.0°C 65.9°F18.8°C 93% 1.2 mph S1.9 kmh S 2.3 mph3.7 kmh 28.11 in951.9 mb - 0.00 in0.0 mm 0.00 in0.0 mm
05:00 AM 68.0°F20.0°C 65.9°F18.8°C 93% 1.2 mph SSE1.9 kmh SSE 2.3 mph3.7 kmh 28.11 in951.9 mb - 0.00 in0.0 mm 0.00 in0.0 mm
05:01 AM 68.0°F20.0°C 65.9°F18.8°C 93% Calm Calm -- 28.11 in951.9 mb - 0.00 in0.0 mm 0.00 in0.0 mm
05:02 AM 68.0°F20.0°C 65.9°F18.8°C 93% Calm Calm 1.2 mph1.9 kmh 28.11 in951.9 mb - 0.00 in0.0 mm 0.00 in0.0 mm
05:03 AM 68.0°F20.0°C 65.9°F18.8°C 93% 1.2 mph SW1.9 kmh SW 1.2 mph1.9 kmh 28.11 in951.9 mb - 0.00 in0.0 mm 0.00 in0.0 mm
05:04 AM 68.0°F20.0°C 65.9°F18.8°C 93% Calm Calm 1.2 mph1.9 kmh 28.11 in951.9 mb - 0.00 in0.0 mm 0.00 in0.0 mm
05:05 AM 67.9°F19.9°C 65.8°F18.8°C 93% Calm Calm -- 28.11 in951.9 mb - 0.00 in0.0 mm 0.00 in0.0 mm
05:06 AM 67.8°F19.9°C 65.7°F18.7°C 93% Calm Calm -- 28.11 in951.9 mb - 0.00 in0.0 mm 0.00 in0.0 mm
05:07 AM 67.8°F19.9°C 65.7°F18.7°C 93% Calm Calm 1.2 mph1.9 kmh 28.11 in951.9 mb - 0.00 in0.0 mm 0.00 in0.0 mm
05:08 AM 67.8°F19.9°C 65.7°F18.7°C 93% Calm Calm 1.2 mph1.9 kmh 28.11 in951.9 mb - 0.00 in0.0 mm 0.00 in0.0 mm
05:09 AM 67.8°F19.9°C 65.7°F18.7°C 93% Calm Calm -- 28.11 in951.9 mb - 0.00 in0.0 mm 0.00 in0.0 mm
05:10 AM 67.8°F19.9°C 65.7°F18.7°C 93% Calm Calm -- 28.11 in951.9 mb - 0.00 in0.0 mm 0.00 in0.0 mm
05:11 AM 67.8°F19.9°C 65.7°F18.7°C 93% Calm Calm -- 28.11 in951.9 mb - 0.00 in0.0 mm 0.00 in0.0 mm
05:12 AM 67.8°F19.9°C 65.7°F18.7°C 93% Calm Calm -- 28.11 in951.9 mb - 0.00 in0.0 mm 0.00 in0.0 mm
05:13 AM 67.8°F19.9°C 65.7°F18.7°C 93% Calm Calm -- 28.11 in951.9 mb - 0.00 in0.0 mm 0.00 in0.0 mm
05:14 AM 67.8°F19.9°C 65.7°F18.7°C 93% Calm Calm -- 28.11 in951.9 mb - 0.00 in0.0 mm 0.00 in0.0 mm
05:15 AM 67.8°F19.9°C 65.7°F18.7°C 93% Calm Calm -- 28.11 in951.9 mb - 0.00 in0.0 mm 0.00 in0.0 mm
05:16 AM 67.8°F19.9°C 65.7°F18.7°C 93% Calm Calm -- 28.11 in951.9 mb - 0.00 in0.0 mm 0.00 in0.0 mm
05:17 AM 67.8°F19.9°C 65.7°F18.7°C 93% Calm Calm -- 28.11 in951.9 mb - 0.00 in0.0 mm 0.00 in0.0 mm
05:18 AM 67.6°F19.8°C 65.5°F18.6°C 93% Calm Calm -- 28.11 in951.9 mb - 0.00 in0.0 mm 0.00 in0.0 mm
05:19 AM 67.6°F19.8°C 65.5°F18.6°C 93% Calm Calm -- 28.11 in951.9 mb - 0.00 in0.0 mm 0.00 in0.0 mm
05:20 AM 67.6°F19.8°C 65.5°F18.6°C 93% Calm Calm 1.2 mph1.9 kmh 28.11 in951.9 mb - 0.00 in0.0 mm 0.00 in0.0 mm
05:21 AM 67.6°F19.8°C 65.5°F18.6°C 93% 1.2 mph ESE1.9 kmh ESE 1.2 mph1.9 kmh 28.11 in951.9 mb - 0.00 in0.0 mm 0.00 in0.0 mm
05:22 AM 67.6°F19.8°C 65.5°F18.6°C 93% Calm Calm -- 28.11 in951.9 mb - 0.00 in0.0 mm 0.00 in0.0 mm
05:23 AM 67.6°F19.8°C 65.5°F18.6°C 93% Calm Calm -- 28.11 in951.9 mb - 0.00 in0.0 mm 0.00 in0.0 mm
05:24 AM 67.6°F19.8°C 65.5°F18.6°C 93% Calm Calm -- 28.11 in951.9 mb - 0.00 in0.0 mm 0.00 in0.0 mm
05:25 AM 67.6°F19.8°C 65.5°F18.6°C 93% Calm Calm -- 28.11 in951.9 mb - 0.00 in0.0 mm 0.00 in0.0 mm
05:26 AM 67.6°F19.8°C 65.5°F18.6°C 93% Calm Calm -- 28.11 in951.9 mb - 0.00 in0.0 mm 0.00 in0.0 mm
05:27 AM 67.6°F19.8°C 65.5°F18.6°C 93% Calm Calm -- 28.11 in951.9 mb - 0.00 in0.0 mm 0.00 in0.0 mm
05:28 AM 67.6°F19.8°C 65.5°F18.6°C 93% Calm Calm -- 28.11 in951.9 mb - 0.00 in0.0 mm 0.00 in0.0 mm
05:29 AM 67.6°F19.8°C 65.5°F18.6°C 93% 1.2 mph SW1.9 kmh SW 3.5 mph5.6 kmh 28.11 in951.9 mb - 0.00 in0.0 mm 0.00 in0.0 mm
05:30 AM 67.6°F19.8°C 65.5°F18.6°C 93% 2.3 mph SW3.7 kmh SW 1.2 mph1.9 kmh 28.11 in951.9 mb - 0.00 in0.0 mm 0.00 in0.0 mm
05:31 AM 67.6°F19.8°C 65.5°F18.6°C 93% 1.2 mph SW1.9 kmh SW 1.2 mph1.9 kmh 28.11 in951.9 mb - 0.00 in0.0 mm 0.00 in0.0 mm
05:32 AM 67.6°F19.8°C 65.5°F18.6°C 93% 1.2 mph WSW1.9 kmh WSW 1.2 mph1.9 kmh 28.11 in951.9 mb - 0.00 in0.0 mm 0.00 in0.0 mm
05:33 AM 67.6°F19.8°C 65.5°F18.6°C 93% 1.2 mph SW1.9 kmh SW 2.3 mph3.7 kmh 28.11 in951.9 mb - 0.00 in0.0 mm 0.00 in0.0 mm
05:34 AM 67.6°F19.8°C 65.5°F18.6°C 93% 1.2 mph SW1.9 kmh SW 1.2 mph1.9 kmh 28.11 in951.9 mb - 0.00 in0.0 mm 0.00 in0.0 mm
05:35 AM 67.6°F19.8°C 65.8°F18.8°C 94% Calm Calm -- 28.11 in951.9 mb - 0.00 in0.0 mm 0.00 in0.0 mm
05:36 AM 67.6°F19.8°C 65.8°F18.8°C 94% Calm Calm -- 28.11 in951.9 mb - 0.00 in0.0 mm 0.00 in0.0 mm
05:37 AM 67.6°F19.8°C 65.8°F18.8°C 94% Calm Calm -- 28.11 in951.9 mb - 0.00 in0.0 mm 0.00 in0.0 mm
05:38 AM 67.6°F19.8°C 65.8°F18.8°C 94% Calm Calm -- 28.11 in951.9 mb - 0.00 in0.0 mm 0.00 in0.0 mm
05:39 AM 67.6°F19.8°C 65.8°F18.8°C 94% Calm Calm -- 28.11 in951.9 mb - 0.00 in0.0 mm 0.00 in0.0 mm
05:40 AM 67.6°F19.8°C 65.8°F18.8°C 94% Calm Calm -- 28.11 in951.9 mb - 0.00 in0.0 mm 0.00 in0.0 mm
05:41 AM 67.6°F19.8°C 65.8°F18.8°C 94% Calm Calm -- 28.11 in951.9 mb - 0.00 in0.0 mm 0.00 in0.0 mm
05:42 AM 67.6°F19.8°C 65.8°F18.8°C 94% Calm Calm -- 28.11 in951.9 mb - 0.00 in0.0 mm 0.00 in0.0 mm
05:43 AM 67.6°F19.8°C 65.8°F18.8°C 94% Calm Calm -- 28.11 in951.9 mb - 0.00 in0.0 mm 0.00 in0.0 mm
05:44 AM 67.6°F19.8°C 65.8°F18.8°C 94% Calm Calm -- 28.11 in951.9 mb - 0.00 in0.0 mm 0.00 in0.0 mm
05:45 AM 67.6°F19.8°C 65.8°F18.8°C 94% Calm Calm -- 28.11 in951.9 mb - 0.00 in0.0 mm 0.00 in0.0 mm
05:46 AM 67.6°F19.8°C 65.8°F18.8°C 94% Calm Calm -- 28.11 in951.9 mb - 0.00 in0.0 mm 0.00 in0.0 mm
05:47 AM 67.6°F19.8°C 65.8°F18.8°C 94% Calm Calm -- 28.11 in951.9 mb - 0.00 in0.0 mm 0.00 in0.0 mm
05:48 AM 67.6°F19.8°C 65.8°F18.8°C 94% Calm Calm -- 28.11 in951.9 mb - 0.00 in0.0 mm 0.00 in0.0 mm
05:49 AM 67.6°F19.8°C 65.8°F18.8°C 94% Calm Calm -- 28.11 in951.9 mb - 0.00 in0.0 mm 0.00 in0.0 mm
05:50 AM 67.6°F19.8°C 65.8°F18.8°C 94% Calm Calm -- 28.11 in951.9 mb - 0.00 in0.0 mm 0.00 in0.0 mm
05:51 AM 67.6°F19.8°C 65.8°F18.8°C 94% Calm Calm -- 28.11 in951.9 mb - 0.00 in0.0 mm 0.00 in0.0 mm
05:52 AM 67.6°F19.8°C 65.8°F18.8°C 94% Calm Calm -- 28.11 in951.9 mb - 0.00 in0.0 mm 0.00 in0.0 mm
05:53 AM 67.6°F19.8°C 65.8°F18.8°C 94% Calm Calm -- 28.11 in951.9 mb - 0.00 in0.0 mm 0.00 in0.0 mm
05:54 AM 67.6°F19.8°C 65.8°F18.8°C 94% Calm Calm -- 28.11 in951.9 mb - 0.00 in0.0 mm 0.00 in0.0 mm
05:55 AM 67.5°F19.7°C 65.7°F18.7°C 94% Calm Calm -- 28.11 in951.9 mb - 0.00 in0.0 mm 0.00 in0.0 mm
05:56 AM 67.5°F19.7°C 65.7°F18.7°C 94% Calm Calm -- 28.11 in951.9 mb - 0.00 in0.0 mm 0.00 in0.0 mm
05:57 AM 67.5°F19.7°C 65.7°F18.7°C 94% Calm Calm -- 28.11 in951.9 mb - 0.00 in0.0 mm 0.00 in0.0 mm